createdAt,value
2023-09-26T00:00:53.154Z,99.99
2023-09-26T00:01:53.130Z,99.99
2023-09-26T00:02:53.318Z,99.99
2023-09-26T00:03:53.332Z,99.99
2023-09-26T00:04:53.149Z,99.99
2023-09-26T00:05:53.062Z,99.99
2023-09-26T00:06:53.106Z,99.99
2023-09-26T00:07:53.177Z,99.99
2023-09-26T00:08:53.049Z,99.99
2023-09-26T00:09:53.056Z,99.99
2023-09-26T00:10:53.009Z,99.99
2023-09-26T00:11:52.995Z,99.99
2023-09-26T00:12:53.007Z,99.99
2023-09-26T00:13:52.987Z,99.99
2023-09-26T00:14:52.966Z,99.99
2023-09-26T00:15:53.018Z,99.99
2023-09-26T00:16:53.068Z,99.99
2023-09-26T00:17:53.002Z,99.99
2023-09-26T00:18:52.963Z,99.99
2023-09-26T00:19:52.913Z,99.99
2023-09-26T00:20:52.913Z,99.99
2023-09-26T00:21:52.902Z,99.99
2023-09-26T00:22:52.896Z,99.99
2023-09-26T00:23:52.937Z,99.99
2023-09-26T00:24:52.890Z,99.99
2023-09-26T00:25:52.859Z,99.99
2023-09-26T00:26:52.838Z,99.99
2023-09-26T00:27:52.838Z,99.99
2023-09-26T00:28:52.811Z,99.99
2023-09-26T00:29:52.810Z,99.99
2023-09-26T00:30:52.829Z,99.99
2023-09-26T00:31:52.818Z,99.99
2023-09-26T00:32:52.790Z,99.99
2023-09-26T00:33:52.997Z,99.99
2023-09-26T00:34:52.756Z,99.99
2023-09-26T00:35:52.766Z,99.99
2023-09-26T00:36:52.860Z,99.99
2023-09-26T00:37:52.922Z,99.99
2023-09-26T00:38:52.696Z,99.99
2023-09-26T00:39:52.721Z,99.99
2023-09-26T00:40:52.695Z,99.99
2023-09-26T00:41:52.670Z,99.99
2023-09-26T00:42:52.747Z,99.99
2023-09-26T00:43:52.866Z,99.99
2023-09-26T00:44:52.634Z,99.99
2023-09-26T00:45:52.801Z,99.99
2023-09-26T00:46:52.790Z,99.99
2023-09-26T00:47:52.633Z,99.99
2023-09-26T00:48:52.612Z,99.99
2023-09-26T00:49:52.576Z,99.99
2023-09-26T00:50:52.626Z,99.99
2023-09-26T00:51:52.604Z,99.99
2023-09-26T00:52:52.618Z,99.99
2023-09-26T00:53:52.686Z,99.99
2023-09-26T00:54:52.547Z,99.99
2023-09-26T00:55:52.534Z,99.99
2023-09-26T00:56:52.556Z,99.99
2023-09-26T00:57:52.519Z,99.99
2023-09-26T00:58:52.478Z,99.99
2023-09-26T00:59:52.471Z,99.99
2023-09-26T01:00:52.525Z,99.99
2023-09-26T01:01:52.501Z,99.99
2023-09-26T01:02:52.509Z,99.99
2023-09-26T01:03:52.669Z,99.99
2023-09-26T01:04:52.427Z,99.99
2023-09-26T01:05:52.414Z,99.99
2023-09-26T01:06:52.460Z,99.99
2023-09-26T01:07:52.384Z,99.99
2023-09-26T01:08:52.390Z,99.99
2023-09-26T01:09:52.413Z,99.99
2023-09-26T01:10:52.345Z,99.99
2023-09-26T01:11:52.360Z,99.99
2023-09-26T01:12:52.380Z,99.99
2023-09-26T01:13:52.571Z,99.99
2023-09-26T01:14:52.303Z,99.99
2023-09-26T01:15:52.366Z,99.99
2023-09-26T01:16:52.352Z,99.99
2023-09-26T01:17:52.347Z,99.99
2023-09-26T01:18:52.299Z,99.99
2023-09-26T01:19:52.246Z,99.99
2023-09-26T01:20:52.273Z,99.99
2023-09-26T01:21:52.268Z,99.99
2023-09-26T01:22:52.265Z,99.99
2023-09-26T01:23:52.237Z,99.99
2023-09-26T01:24:52.278Z,99.99
2023-09-26T01:25:52.189Z,99.99
2023-09-26T01:26:52.186Z,99.99
2023-09-26T01:27:52.183Z,99.99
2023-09-26T01:28:52.231Z,99.99
2023-09-26T01:29:52.141Z,99.99
2023-09-26T01:30:52.159Z,99.99
2023-09-26T01:31:52.162Z,99.99
2023-09-26T01:32:52.223Z,99.99
2023-09-26T01:33:52.323Z,99.99
2023-09-26T01:34:52.095Z,99.99
2023-09-26T01:35:52.078Z,99.99
2023-09-26T01:36:52.095Z,99.99
2023-09-26T01:37:52.082Z,99.99
2023-09-26T01:38:52.068Z,99.99
2023-09-26T01:39:52.060Z,99.99
2023-09-26T01:40:52.055Z,99.99
2023-09-26T01:41:52.025Z,99.99
2023-09-26T01:42:52.054Z,99.99
2023-09-26T01:43:52.143Z,99.99
2023-09-26T01:44:52.031Z,99.99
2023-09-26T01:45:52.014Z,99.99
2023-09-26T01:46:52.061Z,99.99
2023-09-26T01:47:51.964Z,99.99
2023-09-26T01:48:52.017Z,99.99
2023-09-26T01:49:51.943Z,99.99
2023-09-26T01:50:51.916Z,99.99
2023-09-26T01:51:51.933Z,99.99
2023-09-26T01:52:51.919Z,99.99
2023-09-26T01:53:52.013Z,99.99
2023-09-26T01:54:51.971Z,99.99
2023-09-26T01:55:51.869Z,99.99
2023-09-26T01:56:51.856Z,99.99
2023-09-26T01:57:51.891Z,99.99
2023-09-26T01:58:51.832Z,99.99
2023-09-26T01:59:51.816Z,99.99
2023-09-26T02:00:51.828Z,99.99
2023-09-26T02:01:51.848Z,99.99
2023-09-26T02:02:51.821Z,99.99
2023-09-26T02:03:51.907Z,99.99
2023-09-26T02:04:51.788Z,99.99
2023-09-26T02:05:51.788Z,99.99
2023-09-26T02:06:51.767Z,99.99
2023-09-26T02:07:51.733Z,99.99
2023-09-26T02:08:51.717Z,99.99
2023-09-26T02:09:51.712Z,99.99
2023-09-26T02:10:51.753Z,99.99
2023-09-26T02:11:51.696Z,99.99
2023-09-26T02:12:51.855Z,99.99
2023-09-26T02:13:51.969Z,99.99
2023-09-26T02:14:51.664Z,99.99
2023-09-26T02:15:51.770Z,99.99
2023-09-26T02:16:51.722Z,99.99
2023-09-26T02:17:51.663Z,99.99
2023-09-26T02:18:51.636Z,99.99
2023-09-26T02:19:51.668Z,99.99
2023-09-26T02:20:51.611Z,99.99
2023-09-26T02:21:51.637Z,99.99
2023-09-26T02:22:51.604Z,99.99
2023-09-26T02:23:51.811Z,99.99
2023-09-26T02:24:51.602Z,99.99
2023-09-26T02:25:51.557Z,99.99
2023-09-26T02:26:51.563Z,99.99
2023-09-26T02:27:51.743Z,99.99
2023-09-26T02:28:51.504Z,99.99
2023-09-26T02:29:51.498Z,99.99
2023-09-26T02:30:51.530Z,99.99
2023-09-26T02:31:51.581Z,99.99
2023-09-26T02:32:51.531Z,99.99
2023-09-26T02:33:51.647Z,99.99
2023-09-26T02:34:51.456Z,99.99
2023-09-26T02:35:51.426Z,99.99
2023-09-26T02:36:51.466Z,99.99
2023-09-26T02:37:51.459Z,99.99
2023-09-26T02:38:51.398Z,99.99
2023-09-26T02:39:51.472Z,99.99
2023-09-26T02:40:51.384Z,99.99
2023-09-26T02:41:51.380Z,99.99
2023-09-26T02:44:03.413Z,99.99
2023-09-26T02:45:04.387Z,99.99
2023-09-26T02:46:04.538Z,99.99
2023-09-26T02:47:04.370Z,99.99
2023-09-26T02:48:04.571Z,99.99
2023-09-26T02:49:04.409Z,99.99
2023-09-26T02:50:04.357Z,99.99
2023-09-26T02:51:04.333Z,99.99
2023-09-26T02:52:04.353Z,99.99
2023-09-26T02:53:04.355Z,99.99
2023-09-26T02:54:04.306Z,99.99
2023-09-26T02:55:04.315Z,99.99
2023-09-26T02:56:04.268Z,99.99
2023-09-26T02:57:11.792Z,99.99
2023-09-26T02:58:04.280Z,99.99
2023-09-26T02:59:04.275Z,99.99
2023-09-26T03:00:04.250Z,99.99
2023-09-26T03:01:04.267Z,99.99
2023-09-26T03:02:04.257Z,99.99
2023-09-26T03:03:04.277Z,99.99
2023-09-26T03:04:04.269Z,99.99
2023-09-26T03:05:04.198Z,99.99
2023-09-26T03:06:04.161Z,99.99
2023-09-26T03:07:04.194Z,99.99
2023-09-26T03:08:04.175Z,99.99
2023-09-26T03:09:04.169Z,99.99
2023-09-26T03:10:04.185Z,99.99
2023-09-26T03:11:04.108Z,99.99
2023-09-26T03:12:04.124Z,99.99
2023-09-26T03:13:04.134Z,99.99
2023-09-26T03:14:04.115Z,99.99
2023-09-26T03:15:04.077Z,99.99
2023-09-26T03:16:04.128Z,99.99
2023-09-26T03:17:04.197Z,99.99
2023-09-26T03:18:04.097Z,99.99
2023-09-26T03:19:04.088Z,99.99
2023-09-26T03:20:04.026Z,99.99
2023-09-26T03:21:04.001Z,99.99
2023-09-26T03:22:04.009Z,99.99
2023-09-26T03:23:03.976Z,99.99
2023-09-26T03:24:03.994Z,99.99
2023-09-26T03:25:04.045Z,99.99
2023-09-26T03:26:03.968Z,99.99
2023-09-26T03:27:03.949Z,99.99
2023-09-26T03:28:03.933Z,99.99
2023-09-26T03:29:03.918Z,99.99
2023-09-26T03:30:03.947Z,99.99
2023-09-26T03:31:03.979Z,99.99
2023-09-26T03:32:04.070Z,99.99
2023-09-26T03:33:03.914Z,99.99
2023-09-26T03:34:03.895Z,99.99
2023-09-26T03:35:03.889Z,99.99
2023-09-26T03:36:03.848Z,99.99
2023-09-26T03:37:03.886Z,99.99
2023-09-26T03:38:03.842Z,99.99
2023-09-26T03:39:03.839Z,99.99
2023-09-26T03:40:03.864Z,99.99
2023-09-26T03:41:03.790Z,99.99
2023-09-26T03:42:03.786Z,99.99
2023-09-26T03:43:03.788Z,99.99
2023-09-26T03:44:03.775Z,99.99
2023-09-26T03:45:03.779Z,99.99
2023-09-26T03:46:03.832Z,99.99
2023-09-26T03:47:03.812Z,99.99
2023-09-26T03:48:03.751Z,99.99
2023-09-26T03:49:03.776Z,99.99
2023-09-26T03:50:03.719Z,99.99
2023-09-26T03:51:03.681Z,99.99
2023-09-26T03:52:03.690Z,99.99
2023-09-26T03:53:03.668Z,99.99
2023-09-26T03:54:03.648Z,99.99
2023-09-26T03:55:03.923Z,99.99
2023-09-26T03:56:03.655Z,99.99
2023-09-26T03:57:03.619Z,99.99
2023-09-26T03:58:03.655Z,99.99
2023-09-26T03:59:03.625Z,99.99
2023-09-26T04:00:03.581Z,99.99
2023-09-26T04:01:03.658Z,99.99
2023-09-26T04:02:03.697Z,99.99
2023-09-26T04:03:03.580Z,99.99
2023-09-26T04:04:03.809Z,99.99
2023-09-26T04:05:03.525Z,99.99
2023-09-26T04:06:03.545Z,99.99
2023-09-26T04:07:03.581Z,99.99
2023-09-26T04:08:03.501Z,99.99
2023-09-26T04:09:03.494Z,99.99
2023-09-26T04:10:03.528Z,99.99
2023-09-26T04:11:03.505Z,99.99
2023-09-26T04:12:03.466Z,99.99
2023-09-26T04:13:03.514Z,99.99
2023-09-26T04:14:03.441Z,99.99
2023-09-26T04:15:03.443Z,99.99
2023-09-26T04:16:03.447Z,99.99
2023-09-26T04:17:03.388Z,99.99
2023-09-26T04:18:03.434Z,99.99
2023-09-26T04:19:03.508Z,99.99
2023-09-26T04:20:03.463Z,99.99
2023-09-26T04:21:03.382Z,99.99
2023-09-26T04:22:03.391Z,99.99
2023-09-26T04:23:03.327Z,99.99
2023-09-26T04:24:03.331Z,99.99
2023-09-26T04:25:03.360Z,99.99
2023-09-26T04:26:03.356Z,99.99
2023-09-26T04:27:03.305Z,99.99
2023-09-26T04:28:03.353Z,99.99
2023-09-26T04:29:03.308Z,99.99
2023-09-26T04:30:03.267Z,99.99
2023-09-26T04:31:03.383Z,99.99
2023-09-26T04:32:03.382Z,99.99
2023-09-26T04:33:03.281Z,99.99
2023-09-26T04:34:03.231Z,99.99
2023-09-26T04:35:03.235Z,99.99
2023-09-26T04:36:03.202Z,99.99
2023-09-26T04:37:03.312Z,99.99
2023-09-26T04:38:03.267Z,99.99
2023-09-26T04:39:03.164Z,99.99
2023-09-26T04:40:03.180Z,99.99
2023-09-26T04:41:03.170Z,99.99
2023-09-26T04:42:03.159Z,99.99
2023-09-26T04:43:03.136Z,99.99
2023-09-26T04:44:03.105Z,99.99
2023-09-26T04:45:03.104Z,99.99
2023-09-26T04:46:03.120Z,99.99
2023-09-26T04:47:03.126Z,99.99
2023-09-26T04:48:03.156Z,99.99
2023-09-26T04:49:03.150Z,99.99
2023-09-26T04:50:03.034Z,99.99
2023-09-26T04:51:03.059Z,99.99
2023-09-26T04:52:03.132Z,99.99
2023-09-26T04:53:03.019Z,99.99
2023-09-26T04:54:03.047Z,99.99
2023-09-26T04:55:03.053Z,99.99
2023-09-26T04:56:02.998Z,99.99
2023-09-26T04:57:03.020Z,99.99
2023-09-26T04:58:03.079Z,99.99
2023-09-26T04:59:02.937Z,99.99
2023-09-26T05:00:02.948Z,99.99
2023-09-26T05:01:02.993Z,99.99
2023-09-26T05:02:03.016Z,99.99
2023-09-26T05:03:02.966Z,99.99
2023-09-26T05:04:02.987Z,99.99
2023-09-26T05:05:02.887Z,99.99
2023-09-26T05:06:02.886Z,99.99
2023-09-26T05:07:02.915Z,99.99
2023-09-26T05:08:02.863Z,99.99
2023-09-26T05:09:02.843Z,99.99
2023-09-26T05:10:03.051Z,99.99
2023-09-26T05:11:02.847Z,99.99
2023-09-26T05:12:02.822Z,99.99
2023-09-26T05:13:02.850Z,99.99
2023-09-26T05:14:02.784Z,99.99
2023-09-26T05:15:02.766Z,99.99
2023-09-26T05:16:02.802Z,99.99
2023-09-26T05:17:02.839Z,99.99
2023-09-26T05:18:02.823Z,99.99
2023-09-26T05:19:02.752Z,99.99
2023-09-26T05:20:02.717Z,99.99
2023-09-26T05:21:02.714Z,99.99
2023-09-26T05:22:02.819Z,99.99
2023-09-26T05:23:02.701Z,99.99
2023-09-26T05:24:02.689Z,99.99
2023-09-26T05:25:02.690Z,99.99
2023-09-26T05:26:02.697Z,99.99
2023-09-26T05:27:02.643Z,99.99
2023-09-26T05:28:02.716Z,99.99
2023-09-26T05:29:02.636Z,99.99
2023-09-26T05:30:02.605Z,99.99
2023-09-26T05:31:02.699Z,99.99
2023-09-26T05:32:02.684Z,99.99
2023-09-26T05:33:02.651Z,99.99
2023-09-26T05:34:02.615Z,99.99
2023-09-26T05:35:02.576Z,99.99
2023-09-26T05:36:02.540Z,99.99
2023-09-26T05:37:02.581Z,99.99
2023-09-26T05:38:02.524Z,99.99
2023-09-26T05:39:02.535Z,99.99
2023-09-26T05:40:02.516Z,99.99
2023-09-26T05:41:02.492Z,99.99
2023-09-26T05:42:02.510Z,99.99
2023-09-26T05:43:02.557Z,99.99
2023-09-26T05:44:02.478Z,99.99
2023-09-26T05:45:02.440Z,99.99
2023-09-26T05:46:02.529Z,99.99
2023-09-26T05:47:02.503Z,99.99
2023-09-26T05:48:02.443Z,99.99
2023-09-26T05:49:02.441Z,99.99
2023-09-26T05:50:02.389Z,99.99
2023-09-26T05:51:02.398Z,99.99
2023-09-26T05:52:02.380Z,99.99
2023-09-26T05:53:02.366Z,99.99
2023-09-26T05:54:02.359Z,99.99
2023-09-26T05:55:02.424Z,99.99
2023-09-26T05:56:02.333Z,99.99
2023-09-26T05:57:02.318Z,99.99
2023-09-26T05:58:02.334Z,99.99
2023-09-26T05:59:02.320Z,99.99
2023-09-26T06:00:02.296Z,99.99
2023-09-26T06:01:02.370Z,99.99
2023-09-26T06:02:02.370Z,99.99
2023-09-26T06:03:02.414Z,99.99
2023-09-26T06:04:02.341Z,99.99
2023-09-26T06:05:02.499Z,99.99
2023-09-26T06:06:02.220Z,99.99
2023-09-26T06:07:02.314Z,99.99
2023-09-26T06:08:02.206Z,99.99
2023-09-26T06:09:02.214Z,99.99
2023-09-26T06:10:09.047Z,99.99
2023-09-26T06:11:02.182Z,99.99
2023-09-26T06:12:02.152Z,99.99
2023-09-26T06:13:02.182Z,99.99
2023-09-26T06:14:02.128Z,99.99
2023-09-26T06:15:02.154Z,99.99
2023-09-26T06:16:02.182Z,99.99
2023-09-26T06:17:02.161Z,99.99
2023-09-26T06:18:02.139Z,99.99
2023-09-26T06:19:02.110Z,99.99
2023-09-26T06:20:02.088Z,99.99
2023-09-26T06:21:02.072Z,99.99
2023-09-26T06:22:02.066Z,99.99
2023-09-26T06:23:02.033Z,99.99
2023-09-26T06:24:02.032Z,99.99
2023-09-26T06:25:02.134Z,99.99
2023-09-26T06:26:02.006Z,99.99
2023-09-26T06:27:02.007Z,99.99
2023-09-26T06:28:02.000Z,99.99
2023-09-26T06:29:01.981Z,99.99
2023-09-26T06:30:01.981Z,99.99
2023-09-26T06:31:01.989Z,99.99
2023-09-26T06:32:01.970Z,99.99
2023-09-26T06:33:02.025Z,99.99
2023-09-26T06:34:01.954Z,99.99
2023-09-26T06:35:01.952Z,99.99
2023-09-26T06:36:01.909Z,99.99
2023-09-26T06:37:01.994Z,99.99
2023-09-26T06:38:01.862Z,99.99
2023-09-26T06:39:01.856Z,99.99
2023-09-26T06:40:01.936Z,99.99
2023-09-26T06:41:01.854Z,99.99
2023-09-26T06:42:01.845Z,99.99
2023-09-26T06:43:01.915Z,99.99
2023-09-26T06:44:01.795Z,99.99
2023-09-26T06:45:01.823Z,99.99
2023-09-26T06:46:01.948Z,99.99
2023-09-26T06:47:01.830Z,99.99
2023-09-26T06:48:01.837Z,99.99
2023-09-26T06:49:01.823Z,99.99
2023-09-26T06:50:01.729Z,99.99
2023-09-26T06:51:01.756Z,99.99
2023-09-26T06:52:01.787Z,99.99
2023-09-26T06:53:01.719Z,99.99
2023-09-26T06:54:01.705Z,99.99
2023-09-26T06:55:01.755Z,99.99
2023-09-26T06:56:01.856Z,99.99
2023-09-26T06:57:01.657Z,99.99
2023-09-26T06:58:01.725Z,99.99
2023-09-26T06:59:01.861Z,99.99
2023-09-26T07:00:01.664Z,99.99
2023-09-26T07:01:01.660Z,99.99
2023-09-26T07:02:01.701Z,99.99
2023-09-26T07:03:01.667Z,99.99
2023-09-26T07:04:01.741Z,99.99
2023-09-26T07:05:01.651Z,99.99
2023-09-26T07:06:01.591Z,99.99
2023-09-26T07:07:01.856Z,99.99
2023-09-26T07:08:01.566Z,99.99
2023-09-26T07:09:01.561Z,99.99
2023-09-26T07:10:01.535Z,99.99
2023-09-26T07:11:01.508Z,99.99
2023-09-26T07:12:01.585Z,99.99
2023-09-26T07:13:01.525Z,99.99
2023-09-26T07:14:01.833Z,99.99
2023-09-26T07:15:01.499Z,99.99
2023-09-26T07:16:01.487Z,99.99
2023-09-26T07:17:01.491Z,99.99
2023-09-26T07:18:01.457Z,99.99
2023-09-26T07:19:01.487Z,99.99
2023-09-26T07:20:01.416Z,99.99
2023-09-26T07:21:01.404Z,99.99
2023-09-26T07:22:01.501Z,99.99
2023-09-26T07:23:01.382Z,99.99
2023-09-26T07:24:01.431Z,99.99
2023-09-26T07:25:01.473Z,99.99
2023-09-26T07:26:01.366Z,99.99
2023-09-26T07:27:01.373Z,99.99
2023-09-26T07:28:01.421Z,99.99
2023-09-26T07:29:01.310Z,99.99
2023-09-26T07:30:01.304Z,99.99
2023-09-26T07:31:01.408Z,99.99
2023-09-26T07:32:01.306Z,99.99
2023-09-26T07:33:01.365Z,99.99
2023-09-26T07:34:01.290Z,99.99
2023-09-26T07:35:01.249Z,99.99
2023-09-26T07:36:01.240Z,99.99
2023-09-26T07:37:01.265Z,99.99
2023-09-26T07:38:01.235Z,99.99
2023-09-26T07:39:01.204Z,99.99
2023-09-26T07:40:01.242Z,99.99
2023-09-26T07:41:01.209Z,99.99
2023-09-26T07:42:01.192Z,99.99
2023-09-26T07:43:01.200Z,99.99
2023-09-26T07:44:01.143Z,99.99
2023-09-26T07:45:01.137Z,99.99
2023-09-26T07:46:01.262Z,99.99
2023-09-26T07:47:01.267Z,99.99
2023-09-26T07:48:01.203Z,99.99
2023-09-26T07:49:01.137Z,99.99
2023-09-26T07:50:01.099Z,99.99
2023-09-26T07:51:01.102Z,99.99
2023-09-26T07:52:01.106Z,99.99
2023-09-26T07:53:01.088Z,99.99
2023-09-26T07:54:01.047Z,99.99
2023-09-26T07:55:01.071Z,99.99
2023-09-26T07:56:01.025Z,97.83
2023-09-26T07:57:01.017Z,97.47
2023-09-26T07:58:01.083Z,97.78
2023-09-26T07:59:01.004Z,97.67
2023-09-26T08:00:00.965Z,97.98
2023-09-26T08:01:01.076Z,98.39
2023-09-26T08:02:01.026Z,98.19
2023-09-26T08:03:00.977Z,98.35
2023-09-26T08:04:01.005Z,98.14
2023-09-26T08:05:01.050Z,98.14
2023-09-26T08:06:00.944Z,98.30
2023-09-26T08:07:00.919Z,96.36
2023-09-26T08:08:00.883Z,96.05
2023-09-26T08:09:00.914Z,95.39
2023-09-26T08:10:00.884Z,94.37
2023-09-26T08:11:00.857Z,95.29
2023-09-26T08:12:00.843Z,94.02
2023-09-26T08:13:00.884Z,93.51
2023-09-26T08:14:00.848Z,94.33
2023-09-26T08:15:00.809Z,93.16
2023-09-26T08:16:00.903Z,92.10
2023-09-26T08:17:00.869Z,91.44
2023-09-26T08:18:00.823Z,90.48
2023-09-26T08:19:00.844Z,88.46
2023-09-26T08:20:00.746Z,87.96
2023-09-26T08:21:00.752Z,88.12
2023-09-26T08:22:00.783Z,86.04
2023-09-26T08:23:00.739Z,84.58
2023-09-26T08:24:00.736Z,83.53
2023-09-26T08:25:00.738Z,82.00
2023-09-26T08:26:00.685Z,82.61
2023-09-26T08:27:00.675Z,82.67
2023-09-26T08:28:00.710Z,81.56
2023-09-26T08:29:00.678Z,82.71
2023-09-26T08:30:00.644Z,82.92
2023-09-26T08:31:00.691Z,82.17
2023-09-26T08:32:00.637Z,81.56
2023-09-26T08:33:00.680Z,81.52
2023-09-26T08:34:00.640Z,80.80
2023-09-26T08:35:00.611Z,79.96
2023-09-26T08:36:00.610Z,78.60
2023-09-26T08:37:00.597Z,77.69
2023-09-26T08:38:00.551Z,78.60
2023-09-26T08:39:00.544Z,78.80
2023-09-26T08:40:00.616Z,78.91
2023-09-26T08:41:00.534Z,78.91
2023-09-26T08:42:00.508Z,79.61
2023-09-26T08:43:00.541Z,79.11
2023-09-26T08:44:00.484Z,78.36
2023-09-26T08:45:00.495Z,79.27
2023-09-26T08:46:00.503Z,77.95
2023-09-26T08:47:00.576Z,78.36
2023-09-26T08:48:00.598Z,78.26
2023-09-26T08:49:00.963Z,79.07
2023-09-26T08:50:00.509Z,79.03
2023-09-26T08:51:00.424Z,77.72
2023-09-26T08:52:00.464Z,77.17
2023-09-26T08:53:00.408Z,77.07
2023-09-26T08:54:00.372Z,76.97
2023-09-26T08:55:00.413Z,77.07
2023-09-26T08:56:00.355Z,77.14
2023-09-26T08:57:00.354Z,77.07
2023-09-26T08:58:06.925Z,77.48
2023-09-26T08:59:00.339Z,77.21
2023-09-26T09:00:00.359Z,77.88
2023-09-26T09:01:00.366Z,77.98
2023-09-26T09:02:00.322Z,77.68
2023-09-26T09:03:00.376Z,77.78
2023-09-26T09:04:00.451Z,77.03
2023-09-26T09:05:01.623Z,77.37
2023-09-26T09:06:00.292Z,77.14
2023-09-26T09:07:00.248Z,77.34
2023-09-26T09:08:00.250Z,77.14
2023-09-26T09:09:01.165Z,77.24
2023-09-26T09:10:00.291Z,76.53
2023-09-26T09:11:00.240Z,76.90
2023-09-26T09:12:00.205Z,76.66
2023-09-26T09:13:00.224Z,76.46
2023-09-26T09:14:00.185Z,75.51
2023-09-26T09:15:00.159Z,75.37
2023-09-26T09:16:00.245Z,74.87
2023-09-26T09:17:00.239Z,74.87
2023-09-26T09:18:00.164Z,73.96
2023-09-26T09:19:00.386Z,73.93
2023-09-26T09:20:00.201Z,72.91
2023-09-26T09:21:00.105Z,73.18
2023-09-26T09:22:00.116Z,72.34
2023-09-26T09:23:00.085Z,71.53
2023-09-26T09:24:00.086Z,71.44
2023-09-26T09:25:00.063Z,71.73
2023-09-26T09:26:00.043Z,72.17
2023-09-26T09:27:00.043Z,72.58
2023-09-26T09:28:00.075Z,73.82
2023-09-26T09:29:00.018Z,73.11
2023-09-26T09:30:00.028Z,73.62
2023-09-26T09:31:00.051Z,72.98
2023-09-26T09:32:00.029Z,72.04
2023-09-26T09:33:00.033Z,70.89
2023-09-26T09:33:59.991Z,70.59
2023-09-26T09:34:59.947Z,71.06
2023-09-26T09:35:59.942Z,71.26
2023-09-26T09:36:59.998Z,71.26
2023-09-26T09:37:59.947Z,71.57
2023-09-26T09:38:59.919Z,70.97
2023-09-26T09:39:59.926Z,71.47
2023-09-26T09:40:59.892Z,72.67
2023-09-26T09:41:59.895Z,71.03
2023-09-26T09:42:59.927Z,70.32
2023-09-26T09:43:59.892Z,70.62
2023-09-26T09:44:59.850Z,71.13
2023-09-26T09:45:59.966Z,70.19
2023-09-26T09:46:59.923Z,70.93
2023-09-26T09:47:59.878Z,71.13
2023-09-26T09:48:59.806Z,71.84
2023-09-26T09:49:59.800Z,72.67
2023-09-26T09:50:59.777Z,72.07
2023-09-26T09:51:59.790Z,72.31
2023-09-26T09:52:59.747Z,72.61
2023-09-26T09:53:59.774Z,73.01
2023-09-26T09:54:59.760Z,74.05
2023-09-26T09:55:59.716Z,74.32
2023-09-26T09:56:59.718Z,73.92
2023-09-26T09:57:59.739Z,74.02
2023-09-26T09:58:59.745Z,74.22
2023-09-26T09:59:59.700Z,74.19
2023-09-26T10:00:59.683Z,74.08
2023-09-26T10:01:59.743Z,73.55
2023-09-26T10:02:59.700Z,72.94
2023-09-26T10:03:59.716Z,72.41
2023-09-26T10:04:59.624Z,73.11
2023-09-26T10:05:59.608Z,72.07
2023-09-26T10:06:59.646Z,72.27
2023-09-26T10:07:59.584Z,72.07
2023-09-26T10:08:59.583Z,71.67
2023-09-26T10:09:59.633Z,71.67
2023-09-26T10:11:01.760Z,71.67
2023-09-26T10:11:59.533Z,71.53
2023-09-26T10:13:28.524Z,70.73
2023-09-26T10:13:59.574Z,70.03
2023-09-26T10:14:59.513Z,70.63
2023-09-26T10:15:59.543Z,70.39
2023-09-26T10:16:59.523Z,70.29
2023-09-26T10:17:59.488Z,69.85
2023-09-26T10:18:59.535Z,69.85
2023-09-26T10:20:11.555Z,69.62
2023-09-26T10:20:59.458Z,70.23
2023-09-26T10:21:59.491Z,68.99
2023-09-26T10:22:59.414Z,68.49
2023-09-26T10:23:59.404Z,67.38
2023-09-26T10:24:59.422Z,67.98
2023-09-26T10:25:59.426Z,68.21
2023-09-26T10:27:03.592Z,68.92
2023-09-26T10:28:00.345Z,69.62
2023-09-26T10:28:59.357Z,68.76
2023-09-26T10:29:59.364Z,67.11
2023-09-26T10:30:59.377Z,66.95
2023-09-26T10:31:59.466Z,67.75
2023-09-26T10:32:59.384Z,67.32
2023-09-26T10:33:59.362Z,67.58
2023-09-26T10:34:59.290Z,67.15
2023-09-26T10:35:59.311Z,65.55
2023-09-26T10:36:59.288Z,66.45
2023-09-26T10:37:59.254Z,66.32
2023-09-26T10:38:59.624Z,64.72
2023-09-26T10:39:59.246Z,64.51
2023-09-26T10:40:59.279Z,65.52
2023-09-26T10:44:00.558Z,65.92
2023-09-26T10:44:59.176Z,64.89
2023-09-26T10:45:59.255Z,64.69
2023-09-26T10:46:59.273Z,63.75
2023-09-26T11:15:19.326Z,64.22
2023-09-26T11:15:24.868Z,68.19
2023-09-26T11:16:24.805Z,67.39
2023-09-26T11:17:24.871Z,68.09
2023-09-26T11:18:24.896Z,66.99
2023-09-26T11:19:24.897Z,66.99
2023-09-26T11:20:24.787Z,66.78
2023-09-26T11:21:28.014Z,67.19
2023-09-26T11:22:24.766Z,67.19
2023-09-26T11:23:24.745Z,66.96
2023-09-26T11:24:24.760Z,67.46
2023-09-26T11:25:24.792Z,66.63
2023-09-26T11:26:24.707Z,65.69
2023-09-26T11:27:24.693Z,64.09
2023-09-26T11:28:24.686Z,64.19
2023-09-26T11:29:24.694Z,64.46
2023-09-26T11:30:24.653Z,64.16
2023-09-26T11:31:24.681Z,63.76
2023-09-26T11:32:24.758Z,64.46
2023-09-26T11:33:24.643Z,63.66
2023-09-26T11:34:24.642Z,62.76
2023-09-26T11:35:24.606Z,62.86
2023-09-26T11:36:24.599Z,62.96
2023-09-26T11:37:24.592Z,63.29
2023-09-26T11:38:24.571Z,63.17
2023-09-26T11:39:24.565Z,63.56
2023-09-26T11:40:24.575Z,62.76
2023-09-26T11:41:29.332Z,61.96
2023-09-26T11:42:24.568Z,62.76
2023-09-26T11:43:24.515Z,62.76
2023-09-26T11:44:24.497Z,63.26
2023-09-26T11:45:24.535Z,62.63
2023-09-26T11:46:24.523Z,62.63
2023-09-26T11:47:24.520Z,61.93
2023-09-26T11:48:24.457Z,62.66
2023-09-26T11:49:24.446Z,62.37
2023-09-26T11:50:24.450Z,63.17
2023-09-26T11:51:24.426Z,62.73
2023-09-26T11:52:24.418Z,63.03
2023-09-26T11:53:24.415Z,63.40
2023-09-26T11:54:24.393Z,62.77
2023-09-26T11:55:24.427Z,61.35
2023-09-26T11:56:24.378Z,60.65
2023-09-26T11:57:24.362Z,60.05
2023-09-26T11:58:24.362Z,59.95
2023-09-26T11:59:24.351Z,60.08
2023-09-26T12:00:24.352Z,60.78
2023-09-26T12:01:24.389Z,61.51
2023-09-26T12:02:24.348Z,62.50
2023-09-26T12:03:24.323Z,62.07
2023-09-26T12:04:24.400Z,61.47
2023-09-26T12:05:24.385Z,61.18
2023-09-26T12:06:24.342Z,61.68
2023-09-26T12:07:24.258Z,63.07
2023-09-26T12:08:24.241Z,60.85
2023-09-26T12:09:24.236Z,60.62
2023-09-26T12:10:24.224Z,60.72
2023-09-26T12:11:24.236Z,60.09
2023-09-26T12:12:24.195Z,59.99
2023-09-26T12:13:24.225Z,60.02
2023-09-26T12:14:24.172Z,60.72
2023-09-26T12:15:24.212Z,60.42
2023-09-26T12:16:24.196Z,60.22
2023-09-26T12:17:24.319Z,61.02
2023-09-26T12:18:24.151Z,61.32
2023-09-26T12:19:24.171Z,61.09
2023-09-26T12:20:24.122Z,60.59
2023-09-26T12:21:24.093Z,60.09
2023-09-26T12:22:24.102Z,60.59
2023-09-26T12:23:24.252Z,60.09
2023-09-26T12:24:24.056Z,60.39
2023-09-26T12:25:24.234Z,59.59
2023-09-26T12:26:24.046Z,59.82
2023-09-26T12:27:24.042Z,61.32
2023-09-26T12:28:24.017Z,60.62
2023-09-26T12:29:24.010Z,60.45
2023-09-26T12:30:23.993Z,62.04
2023-09-26T12:31:24.015Z,60.82
2023-09-26T12:32:24.153Z,60.72
2023-09-26T12:33:24.002Z,60.62
2023-09-26T12:34:23.951Z,61.02
2023-09-26T12:35:23.943Z,61.41
2023-09-26T12:36:23.926Z,61.11
2023-09-26T12:37:23.929Z,61.41
2023-09-26T12:38:23.905Z,60.32
2023-09-26T12:39:23.896Z,60.09
2023-09-26T12:40:23.881Z,59.49
2023-09-26T12:41:23.887Z,59.66
2023-09-26T12:42:23.878Z,59.66
2023-09-26T12:43:23.854Z,59.34
2023-09-26T12:44:23.842Z,58.84
2023-09-26T12:45:23.842Z,59.44
2023-09-26T12:46:23.829Z,59.44
2023-09-26T12:47:23.856Z,58.71
2023-09-26T12:48:23.838Z,58.61
2023-09-26T12:49:23.795Z,58.71
2023-09-26T12:50:23.782Z,59.38
2023-09-26T12:51:23.783Z,57.79
2023-09-26T12:52:23.782Z,58.88
2023-09-26T12:53:23.751Z,57.82
2023-09-26T12:54:23.753Z,56.62
2023-09-26T12:55:23.730Z,57.45
2023-09-26T12:56:23.713Z,57.94
2023-09-26T12:57:23.705Z,58.67
2023-09-26T12:58:23.721Z,59.17
2023-09-26T12:59:23.743Z,58.67
2023-09-26T13:00:23.703Z,59.06
2023-09-26T13:01:23.679Z,57.57
2023-09-26T13:02:23.715Z,58.47
2023-09-26T13:03:23.695Z,59.96
2023-09-26T13:04:23.623Z,59.96
2023-09-26T13:05:23.619Z,61.13
2023-09-26T13:06:23.612Z,58.51
2023-09-26T13:07:23.647Z,58.18
2023-09-26T13:08:23.626Z,58.39
2023-09-26T13:09:23.577Z,56.49
2023-09-26T13:10:23.576Z,56.99
2023-09-26T13:11:23.571Z,54.28
2023-09-26T13:12:23.568Z,54.78
2023-09-26T13:13:23.558Z,53.88
2023-09-26T13:14:23.517Z,53.98
2023-09-26T13:15:23.504Z,53.86
2023-09-26T13:16:23.503Z,54.55
2023-09-26T13:17:23.482Z,54.06
2023-09-26T13:18:23.505Z,54.25
2023-09-26T13:19:23.453Z,55.25
2023-09-26T13:20:23.470Z,56.14
2023-09-26T13:21:23.445Z,55.44
2023-09-26T13:22:23.434Z,54.46